Denver, Colorado
Traffic Map
Current Weather Conditions
Denver, Colorado
Broken Clouds
Broken Clouds
64°
Feels Like: 64°
Wind Chill: 64° Ceiling: 13000
Heat Index: 64° Visibility: 10mi
Dew Point: 60° Wind: 3mph
Humidity: 89% Direction: 50° (NE)
Pressure: 30.12in Gusts: 0mph
Raw Report DataKBKF 060458Z 05003KT 10SM BKN130 BKN200 18/16 A3012 RMK AO2A SLP120 T01750157
Traffic Incident Summary
Active as of:
Severity:
Category:
InformationThere was an issue retrieving the traffic information for this location. Please try a different location or try again shortly.
Advertisements
Track Severe Weather on mobile